Terminal Aerodrome Forecast
Issued by NWS

Home | Current Version | Previous Version | Text Only | Print | Product List | Glossary On
Versions: 1 2 3 4 5 6 7 8 9 10 11 12 13 14 15 16 17
519
FTUS45 KTFX 241122
TAFLWT
TAF
KLWT 241122Z 2412/2512 VRB05KT P6SM SCT045 BKN090
     FM242100 32005KT P6SM BKN035 PROB30 2422/2503 4SM -SHSN OVC012
     FM250900 28006KT P6SM BKN020=

USA.gov is the U.S. government's official web portal to all federal, state and local government web resources and services.